sensor_id;sensor_type;location;lat;lon;timestamp;temperature;humidity
45537;DHT22;31262;51.978;5.924;2022-08-21T00:00:43;24.00;55.20
45537;DHT22;31262;51.978;5.924;2022-08-21T00:03:10;24.00;55.30
45537;DHT22;31262;51.978;5.924;2022-08-21T00:05:39;24.00;55.30
45537;DHT22;31262;51.978;5.924;2022-08-21T00:08:05;24.00;55.30
45537;DHT22;31262;51.978;5.924;2022-08-21T00:10:31;24.00;55.50
45537;DHT22;31262;51.978;5.924;2022-08-21T00:12:57;23.90;55.50
45537;DHT22;31262;51.978;5.924;2022-08-21T00:15:27;23.90;55.50
45537;DHT22;31262;51.978;5.924;2022-08-21T00:17:53;23.90;55.60
45537;DHT22;31262;51.978;5.924;2022-08-21T00:20:19;23.90;55.70
45537;DHT22;31262;51.978;5.924;2022-08-21T00:22:45;23.80;55.50
45537;DHT22;31262;51.978;5.924;2022-08-21T00:25:11;23.90;55.70
45537;DHT22;31262;51.978;5.924;2022-08-21T00:27:38;23.90;55.80
45537;DHT22;31262;51.978;5.924;2022-08-21T00:30:06;23.80;55.70
45537;DHT22;31262;51.978;5.924;2022-08-21T00:32:32;23.80;55.70
45537;DHT22;31262;51.978;5.924;2022-08-21T00:34:59;23.80;55.80
45537;DHT22;31262;51.978;5.924;2022-08-21T00:37:24;23.70;55.90
45537;DHT22;31262;51.978;5.924;2022-08-21T00:39:50;23.70;56.10
45537;DHT22;31262;51.978;5.924;2022-08-21T00:42:17;23.80;56.00
45537;DHT22;31262;51.978;5.924;2022-08-21T00:44:44;23.70;56.00
45537;DHT22;31262;51.978;5.924;2022-08-21T00:47:10;23.80;56.10
45537;DHT22;31262;51.978;5.924;2022-08-21T00:49:38;23.70;56.00
45537;DHT22;31262;51.978;5.924;2022-08-21T00:52:07;23.70;56.30
45537;DHT22;31262;51.978;5.924;2022-08-21T00:54:33;23.70;56.20
45537;DHT22;31262;51.978;5.924;2022-08-21T00:57:02;23.70;56.30
45537;DHT22;31262;51.978;5.924;2022-08-21T00:59:32;23.70;56.30
45537;DHT22;31262;51.978;5.924;2022-08-21T01:02:00;23.70;56.30
45537;DHT22;31262;51.978;5.924;2022-08-21T01:04:26;23.60;56.30
45537;DHT22;31262;51.978;5.924;2022-08-21T01:06:52;23.60;56.50
45537;DHT22;31262;51.978;5.924;2022-08-21T01:09:18;23.60;56.50
45537;DHT22;31262;51.978;5.924;2022-08-21T01:11:44;23.60;56.50
45537;DHT22;31262;51.978;5.924;2022-08-21T01:14:11;23.60;56.50
45537;DHT22;31262;51.978;5.924;2022-08-21T01:16:39;23.60;56.50
45537;DHT22;31262;51.978;5.924;2022-08-21T01:19:06;23.50;56.50
45537;DHT22;31262;51.978;5.924;2022-08-21T01:21:33;23.50;56.70
45537;DHT22;31262;51.978;5.924;2022-08-21T01:23:59;23.50;56.80
45537;DHT22;31262;51.978;5.924;2022-08-21T01:26:27;23.50;56.80
45537;DHT22;31262;51.978;5.924;2022-08-21T01:29:11;23.50;56.80
45537;DHT22;31262;51.978;5.924;2022-08-21T01:31:37;23.50;56.80
45537;DHT22;31262;51.978;5.924;2022-08-21T01:34:04;23.40;56.70
45537;DHT22;31262;51.978;5.924;2022-08-21T01:36:31;23.40;56.60
45537;DHT22;31262;51.978;5.924;2022-08-21T01:38:56;23.40;57.30
45537;DHT22;31262;51.978;5.924;2022-08-21T01:41:22;23.40;56.80
45537;DHT22;31262;51.978;5.924;2022-08-21T01:43:48;23.40;56.80
45537;DHT22;31262;51.978;5.924;2022-08-21T01:46:14;23.40;56.70
45537;DHT22;31262;51.978;5.924;2022-08-21T01:48:40;23.40;56.50
45537;DHT22;31262;51.978;5.924;2022-08-21T01:51:07;23.40;56.50
45537;DHT22;31262;51.978;5.924;2022-08-21T01:53:34;23.40;56.50
45537;DHT22;31262;51.978;5.924;2022-08-21T01:56:01;23.40;56.70
45537;DHT22;31262;51.978;5.924;2022-08-21T01:58:27;23.30;56.50
45537;DHT22;31262;51.978;5.924;2022-08-21T02:00:53;23.30;56.60
45537;DHT22;31262;51.978;5.924;2022-08-21T02:03:19;23.30;56.60
45537;DHT22;31262;51.978;5.924;2022-08-21T02:05:45;23.30;56.40
45537;DHT22;31262;51.978;5.924;2022-08-21T02:08:11;23.30;56.50
45537;DHT22;31262;51.978;5.924;2022-08-21T02:10:38;23.30;56.50
45537;DHT22;31262;51.978;5.924;2022-08-21T02:13:04;23.30;56.30
45537;DHT22;31262;51.978;5.924;2022-08-21T02:15:30;23.30;56.20
45537;DHT22;31262;51.978;5.924;2022-08-21T02:17:59;23.30;56.30
45537;DHT22;31262;51.978;5.924;2022-08-21T02:20:37;23.30;56.20
45537;DHT22;31262;51.978;5.924;2022-08-21T02:23:05;23.30;56.40
45537;DHT22;31262;51.978;5.924;2022-08-21T02:25:32;23.30;56.50
45537;DHT22;31262;51.978;5.924;2022-08-21T02:27:58;23.30;56.40
45537;DHT22;31262;51.978;5.924;2022-08-21T02:30:27;23.30;56.50
45537;DHT22;31262;51.978;5.924;2022-08-21T02:32:53;23.30;56.50
45537;DHT22;31262;51.978;5.924;2022-08-21T02:35:19;23.20;56.40
45537;DHT22;31262;51.978;5.924;2022-08-21T02:37:51;23.20;56.20
45537;DHT22;31262;51.978;5.924;2022-08-21T02:40:19;23.30;56.20
45537;DHT22;31262;51.978;5.924;2022-08-21T02:42:45;23.20;56.30
45537;DHT22;31262;51.978;5.924;2022-08-21T02:45:12;23.10;56.20
45537;DHT22;31262;51.978;5.924;2022-08-21T02:47:38;23.20;56.20
45537;DHT22;31262;51.978;5.924;2022-08-21T02:50:04;23.20;56.20
45537;DHT22;31262;51.978;5.924;2022-08-21T02:52:30;23.10;56.10
45537;DHT22;31262;51.978;5.924;2022-08-21T02:54:56;23.10;56.30
45537;DHT22;31262;51.978;5.924;2022-08-21T02:57:22;23.10;56.20
45537;DHT22;31262;51.978;5.924;2022-08-21T02:59:47;23.10;56.20
45537;DHT22;31262;51.978;5.924;2022-08-21T03:02:13;23.00;56.40
45537;DHT22;31262;51.978;5.924;2022-08-21T03:04:39;23.00;56.40
45537;DHT22;31262;51.978;5.924;2022-08-21T03:07:04;23.00;56.60
45537;DHT22;31262;51.978;5.924;2022-08-21T03:09:30;23.00;56.50
45537;DHT22;31262;51.978;5.924;2022-08-21T03:11:55;23.00;56.50
45537;DHT22;31262;51.978;5.924;2022-08-21T03:14:21;22.90;56.60
45537;DHT22;31262;51.978;5.924;2022-08-21T03:16:47;23.00;56.60
45537;DHT22;31262;51.978;5.924;2022-08-21T03:19:12;23.00;56.50
45537;DHT22;31262;51.978;5.924;2022-08-21T03:21:38;22.90;56.60
45537;DHT22;31262;51.978;5.924;2022-08-21T03:24:04;22.90;56.80
45537;DHT22;31262;51.978;5.924;2022-08-21T03:26:30;22.90;56.70
45537;DHT22;31262;51.978;5.924;2022-08-21T03:28:56;22.90;56.90
45537;DHT22;31262;51.978;5.924;2022-08-21T03:31:23;22.90;56.90
45537;DHT22;31262;51.978;5.924;2022-08-21T03:33:49;22.90;57.10
45537;DHT22;31262;51.978;5.924;2022-08-21T03:36:15;22.90;57.00
45537;DHT22;31262;51.978;5.924;2022-08-21T03:38:41;22.90;56.90
45537;DHT22;31262;51.978;5.924;2022-08-21T03:41:07;22.90;56.80
45537;DHT22;31262;51.978;5.924;2022-08-21T03:43:33;22.90;56.80
45537;DHT22;31262;51.978;5.924;2022-08-21T03:46:03;22.90;57.00
45537;DHT22;31262;51.978;5.924;2022-08-21T03:48:30;22.90;56.80
45537;DHT22;31262;51.978;5.924;2022-08-21T03:50:55;22.80;56.80
45537;DHT22;31262;51.978;5.924;2022-08-21T03:53:21;22.80;56.70
45537;DHT22;31262;51.978;5.924;2022-08-21T03:55:49;22.80;56.80
45537;DHT22;31262;51.978;5.924;2022-08-21T03:58:16;22.80;56.70
45537;DHT22;31262;51.978;5.924;2022-08-21T04:00:44;22.80;56.70
45537;DHT22;31262;51.978;5.924;2022-08-21T04:03:10;22.70;57.40
45537;DHT22;31262;51.978;5.924;2022-08-21T04:05:36;22.80;57.00
45537;DHT22;31262;51.978;5.924;2022-08-21T04:08:04;22.80;57.10
45537;DHT22;31262;51.978;5.924;2022-08-21T04:10:31;22.80;57.20
45537;DHT22;31262;51.978;5.924;2022-08-21T04:12:58;22.70;57.10
45537;DHT22;31262;51.978;5.924;2022-08-21T04:15:25;22.70;56.90
45537;DHT22;31262;51.978;5.924;2022-08-21T04:17:51;22.80;57.10
45537;DHT22;31262;51.978;5.924;2022-08-21T04:20:17;22.70;57.00
45537;DHT22;31262;51.978;5.924;2022-08-21T04:22:44;22.70;57.00
45537;DHT22;31262;51.978;5.924;2022-08-21T04:25:12;22.60;57.00
45537;DHT22;31262;51.978;5.924;2022-08-21T04:27:38;22.70;56.90
45537;DHT22;31262;51.978;5.924;2022-08-21T04:30:06;22.60;57.10
45537;DHT22;31262;51.978;5.924;2022-08-21T04:32:31;22.60;57.30
45537;DHT22;31262;51.978;5.924;2022-08-21T04:35:02;22.60;57.30
45537;DHT22;31262;51.978;5.924;2022-08-21T04:37:29;22.70;57.20
45537;DHT22;31262;51.978;5.924;2022-08-21T04:39:55;22.60;57.10
45537;DHT22;31262;51.978;5.924;2022-08-21T04:42:27;22.60;57.10
45537;DHT22;31262;51.978;5.924;2022-08-21T04:44:53;22.60;57.10
45537;DHT22;31262;51.978;5.924;2022-08-21T04:47:19;22.50;57.20
45537;DHT22;31262;51.978;5.924;2022-08-21T04:49:45;22.60;57.10
45537;DHT22;31262;51.978;5.924;2022-08-21T04:52:11;22.50;57.10
45537;DHT22;31262;51.978;5.924;2022-08-21T04:54:38;22.50;57.00
45537;DHT22;31262;51.978;5.924;2022-08-21T04:57:06;22.50;57.40
45537;DHT22;31262;51.978;5.924;2022-08-21T04:59:43;22.50;57.40
45537;DHT22;31262;51.978;5.924;2022-08-21T05:02:10;22.60;57.40
45537;DHT22;31262;51.978;5.924;2022-08-21T05:04:41;22.50;57.30
45537;DHT22;31262;51.978;5.924;2022-08-21T05:07:15;22.50;57.20
45537;DHT22;31262;51.978;5.924;2022-08-21T05:09:42;22.50;57.20
45537;DHT22;31262;51.978;5.924;2022-08-21T05:12:08;22.40;57.20
45537;DHT22;31262;51.978;5.924;2022-08-21T05:14:34;22.50;57.30
45537;DHT22;31262;51.978;5.924;2022-08-21T05:16:59;22.50;57.30
45537;DHT22;31262;51.978;5.924;2022-08-21T05:19:25;22.50;57.60
45537;DHT22;31262;51.978;5.924;2022-08-21T05:21:51;22.40;57.40
45537;DHT22;31262;51.978;5.924;2022-08-21T05:24:17;22.40;57.40
45537;DHT22;31262;51.978;5.924;2022-08-21T05:26:43;22.40;57.50
45537;DHT22;31262;51.978;5.924;2022-08-21T05:29:10;22.40;57.50
45537;DHT22;31262;51.978;5.924;2022-08-21T05:31:36;22.40;57.50
45537;DHT22;31262;51.978;5.924;2022-08-21T05:34:03;22.40;57.60
45537;DHT22;31262;51.978;5.924;2022-08-21T05:36:29;22.40;57.70
45537;DHT22;31262;51.978;5.924;2022-08-21T05:38:54;22.40;57.70
45537;DHT22;31262;51.978;5.924;2022-08-21T05:41:20;22.50;57.90
45537;DHT22;31262;51.978;5.924;2022-08-21T05:43:46;22.50;57.80
45537;DHT22;31262;51.978;5.924;2022-08-21T05:46:11;22.50;57.80
45537;DHT22;31262;51.978;5.924;2022-08-21T05:48:37;22.50;57.90
45537;DHT22;31262;51.978;5.924;2022-08-21T05:51:08;22.50;58.00
45537;DHT22;31262;51.978;5.924;2022-08-21T05:53:35;22.50;58.10
45537;DHT22;31262;51.978;5.924;2022-08-21T05:56:01;22.50;58.20
45537;DHT22;31262;51.978;5.924;2022-08-21T05:58:29;22.50;58.20
45537;DHT22;31262;51.978;5.924;2022-08-21T06:00:55;22.50;58.40
45537;DHT22;31262;51.978;5.924;2022-08-21T06:03:26;22.40;58.40
45537;DHT22;31262;51.978;5.924;2022-08-21T06:05:55;22.40;58.50
45537;DHT22;31262;51.978;5.924;2022-08-21T06:08:22;22.20;58.90
45537;DHT22;31262;51.978;5.924;2022-08-21T06:10:49;22.00;59.60
45537;DHT22;31262;51.978;5.924;2022-08-21T06:13:17;21.80;60.00
45537;DHT22;31262;51.978;5.924;2022-08-21T06:15:44;21.60;60.30
45537;DHT22;31262;51.978;5.924;2022-08-21T06:18:10;21.60;60.30
45537;DHT22;31262;51.978;5.924;2022-08-21T06:20:36;21.60;60.40
45537;DHT22;31262;51.978;5.924;2022-08-21T06:23:02;21.40;60.80
45537;DHT22;31262;51.978;5.924;2022-08-21T06:25:28;21.20;61.60
45537;DHT22;31262;51.978;5.924;2022-08-21T06:28:01;21.20;61.90
45537;DHT22;31262;51.978;5.924;2022-08-21T06:30:28;21.30;61.60
45537;DHT22;31262;51.978;5.924;2022-08-21T06:32:53;21.30;61.60
45537;DHT22;31262;51.978;5.924;2022-08-21T06:35:19;21.10;62.00
45537;DHT22;31262;51.978;5.924;2022-08-21T06:37:45;21.00;62.40
45537;DHT22;31262;51.978;5.924;2022-08-21T06:40:10;20.90;62.90
45537;DHT22;31262;51.978;5.924;2022-08-21T06:42:37;20.80;63.30
45537;DHT22;31262;51.978;5.924;2022-08-21T06:45:03;20.80;63.10
45537;DHT22;31262;51.978;5.924;2022-08-21T06:47:29;20.90;63.20
45537;DHT22;31262;51.978;5.924;2022-08-21T06:49:54;21.00;63.10
45537;DHT22;31262;51.978;5.924;2022-08-21T06:52:20;21.10;62.90
45537;DHT22;31262;51.978;5.924;2022-08-21T06:54:46;21.30;62.70
45537;DHT22;31262;51.978;5.924;2022-08-21T06:57:11;21.40;62.40
45537;DHT22;31262;51.978;5.924;2022-08-21T06:59:37;21.60;62.30
45537;DHT22;31262;51.978;5.924;2022-08-21T07:02:03;21.70;62.20
45537;DHT22;31262;51.978;5.924;2022-08-21T07:04:29;21.80;61.90
45537;DHT22;31262;51.978;5.924;2022-08-21T07:06:55;21.90;61.70
45537;DHT22;31262;51.978;5.924;2022-08-21T07:09:20;21.90;62.20
45537;DHT22;31262;51.978;5.924;2022-08-21T07:11:50;21.70;62.10
45537;DHT22;31262;51.978;5.924;2022-08-21T07:14:16;21.70;62.50
45537;DHT22;31262;51.978;5.924;2022-08-21T07:16:42;21.60;62.50
45537;DHT22;31262;51.978;5.924;2022-08-21T07:19:08;21.50;62.80
45537;DHT22;31262;51.978;5.924;2022-08-21T07:21:33;21.50;63.20
45537;DHT22;31262;51.978;5.924;2022-08-21T07:23:59;21.50;63.40
45537;DHT22;31262;51.978;5.924;2022-08-21T07:26:25;21.60;63.30
45537;DHT22;31262;51.978;5.924;2022-08-21T07:28:51;21.70;63.30
45537;DHT22;31262;51.978;5.924;2022-08-21T07:31:19;21.80;63.20
45537;DHT22;31262;51.978;5.924;2022-08-21T07:33:46;21.90;63.20
45537;DHT22;31262;51.978;5.924;2022-08-21T07:36:11;21.90;63.00
45537;DHT22;31262;51.978;5.924;2022-08-21T07:38:37;21.90;63.00
45537;DHT22;31262;51.978;5.924;2022-08-21T07:41:10;21.70;63.60
45537;DHT22;31262;51.978;5.924;2022-08-21T07:43:37;21.80;64.00
45537;DHT22;31262;51.978;5.924;2022-08-21T07:46:03;21.80;63.80
45537;DHT22;31262;51.978;5.924;2022-08-21T07:48:29;21.80;64.20
45537;DHT22;31262;51.978;5.924;2022-08-21T07:50:54;21.90;64.30
45537;DHT22;31262;51.978;5.924;2022-08-21T07:53:20;22.00;64.00
45537;DHT22;31262;51.978;5.924;2022-08-21T07:55:46;22.20;63.80
45537;DHT22;31262;51.978;5.924;2022-08-21T07:58:12;22.40;63.60
45537;DHT22;31262;51.978;5.924;2022-08-21T08:00:38;22.70;63.20
45537;DHT22;31262;51.978;5.924;2022-08-21T08:03:04;22.90;62.60
45537;DHT22;31262;51.978;5.924;2022-08-21T08:05:31;23.00;61.70
45537;DHT22;31262;51.978;5.924;2022-08-21T08:07:57;22.90;61.70
45537;DHT22;31262;51.978;5.924;2022-08-21T08:10:24;22.70;62.30
45537;DHT22;31262;51.978;5.924;2022-08-21T08:12:50;22.50;62.80
45537;DHT22;31262;51.978;5.924;2022-08-21T08:15:21;22.30;63.60
45537;DHT22;31262;51.978;5.924;2022-08-21T08:17:47;22.30;64.30
45537;DHT22;31262;51.978;5.924;2022-08-21T08:20:15;22.40;64.50
45537;DHT22;31262;51.978;5.924;2022-08-21T08:22:41;22.60;63.90
45537;DHT22;31262;51.978;5.924;2022-08-21T08:25:09;22.80;63.70
45537;DHT22;31262;51.978;5.924;2022-08-21T08:27:35;22.90;63.70
45537;DHT22;31262;51.978;5.924;2022-08-21T08:30:01;23.10;63.70
45537;DHT22;31262;51.978;5.924;2022-08-21T08:32:27;23.20;62.60
45537;DHT22;31262;51.978;5.924;2022-08-21T08:34:52;23.20;62.90
45537;DHT22;31262;51.978;5.924;2022-08-21T08:37:19;23.20;63.30
45537;DHT22;31262;51.978;5.924;2022-08-21T08:39:46;23.40;63.10
45537;DHT22;31262;51.978;5.924;2022-08-21T08:44:41;23.50;62.30
45537;DHT22;31262;51.978;5.924;2022-08-21T08:47:09;23.60;61.90
45537;DHT22;31262;51.978;5.924;2022-08-21T08:49:42;23.60;61.60
45537;DHT22;31262;51.978;5.924;2022-08-21T08:52:31;23.50;62.00
45537;DHT22;31262;51.978;5.924;2022-08-21T08:55:09;23.60;61.80
45537;DHT22;31262;51.978;5.924;2022-08-21T08:57:37;23.70;62.00
45537;DHT22;31262;51.978;5.924;2022-08-21T09:00:08;24.00;61.80
45537;DHT22;31262;51.978;5.924;2022-08-21T09:02:38;24.30;60.80
45537;DHT22;31262;51.978;5.924;2022-08-21T09:05:05;24.50;59.30
45537;DHT22;31262;51.978;5.924;2022-08-21T09:08:37;24.50;59.80
45537;DHT22;31262;51.978;5.924;2022-08-21T09:10:50;24.80;59.30
45537;DHT22;31262;51.978;5.924;2022-08-21T09:13:25;24.80;57.90
45537;DHT22;31262;51.978;5.924;2022-08-21T09:21:48;25.10;56.90
45537;DHT22;31262;51.978;5.924;2022-08-21T09:24:29;24.90;57.10
45537;DHT22;31262;51.978;5.924;2022-08-21T09:27:00;25.00;57.60
45537;DHT22;31262;51.978;5.924;2022-08-21T09:29:30;25.20;57.00
45537;DHT22;31262;51.978;5.924;2022-08-21T09:31:56;25.30;55.70
45537;DHT22;31262;51.978;5.924;2022-08-21T09:34:28;25.20;55.30
45537;DHT22;31262;51.978;5.924;2022-08-21T09:36:55;25.20;55.60
45537;DHT22;31262;51.978;5.924;2022-08-21T09:39:31;25.20;55.90
45537;DHT22;31262;51.978;5.924;2022-08-21T09:42:04;25.50;55.50
45537;DHT22;31262;51.978;5.924;2022-08-21T09:44:33;25.70;55.00
45537;DHT22;31262;51.978;5.924;2022-08-21T09:46:59;26.10;54.70
45537;DHT22;31262;51.978;5.924;2022-08-21T09:49:33;26.40;54.80
45537;DHT22;31262;51.978;5.924;2022-08-21T09:52:00;26.70;53.00
45537;DHT22;31262;51.978;5.924;2022-08-21T09:54:31;27.00;52.70
45537;DHT22;31262;51.978;5.924;2022-08-21T09:57:00;27.20;51.60
45537;DHT22;31262;51.978;5.924;2022-08-21T09:59:46;27.20;50.60
45537;DHT22;31262;51.978;5.924;2022-08-21T10:04:52;26.90;50.70
45537;DHT22;31262;51.978;5.924;2022-08-21T10:07:21;26.80;50.80
45537;DHT22;31262;51.978;5.924;2022-08-21T10:10:08;26.90;51.20
45537;DHT22;31262;51.978;5.924;2022-08-21T10:12:42;27.00;51.30
45537;DHT22;31262;51.978;5.924;2022-08-21T10:15:46;27.20;50.80
45537;DHT22;31262;51.978;5.924;2022-08-21T10:21:15;27.50;49.80
45537;DHT22;31262;51.978;5.924;2022-08-21T10:32:24;27.60;48.30
45537;DHT22;31262;51.978;5.924;2022-08-21T10:35:12;27.70;48.40
45537;DHT22;31262;51.978;5.924;2022-08-21T10:38:17;27.70;46.30
45537;DHT22;31262;51.978;5.924;2022-08-21T10:41:04;27.50;47.60
45537;DHT22;31262;51.978;5.924;2022-08-21T10:49:20;27.70;47.50
45537;DHT22;31262;51.978;5.924;2022-08-21T10:52:04;27.70;47.10
45537;DHT22;31262;51.978;5.924;2022-08-21T10:57:26;27.90;45.70
45537;DHT22;31262;51.978;5.924;2022-08-21T10:59:59;28.00;45.40
45537;DHT22;31262;51.978;5.924;2022-08-21T11:02:31;27.90;45.20
45537;DHT22;31262;51.978;5.924;2022-08-21T11:05:04;27.80;46.00
45537;DHT22;31262;51.978;5.924;2022-08-21T11:07:54;28.00;46.30
45537;DHT22;31262;51.978;5.924;2022-08-21T11:10:27;28.30;46.30
45537;DHT22;31262;51.978;5.924;2022-08-21T11:18:57;29.00;44.60
45537;DHT22;31262;51.978;5.924;2022-08-21T11:26:46;29.20;43.30
45537;DHT22;31262;51.978;5.924;2022-08-21T11:29:16;29.40;43.60
45537;DHT22;31262;51.978;5.924;2022-08-21T11:32:03;29.40;43.20
45537;DHT22;31262;51.978;5.924;2022-08-21T11:42:49;29.50;42.40
45537;DHT22;31262;51.978;5.924;2022-08-21T11:48:26;29.50;42.50
45537;DHT22;31262;51.978;5.924;2022-08-21T11:50:55;29.50;42.10
45537;DHT22;31262;51.978;5.924;2022-08-21T11:53:24;29.60;42.30
45537;DHT22;31262;51.978;5.924;2022-08-21T11:56:03;29.50;40.90
45537;DHT22;31262;51.978;5.924;2022-08-21T11:58:40;29.50;41.80
45537;DHT22;31262;51.978;5.924;2022-08-21T12:01:20;29.50;41.40
45537;DHT22;31262;51.978;5.924;2022-08-21T12:04:00;29.60;40.50
45537;DHT22;31262;51.978;5.924;2022-08-21T12:06:35;29.60;40.30
45537;DHT22;31262;51.978;5.924;2022-08-21T12:09:25;29.30;40.90
45537;DHT22;31262;51.978;5.924;2022-08-21T12:12:21;29.10;41.80
45537;DHT22;31262;51.978;5.924;2022-08-21T12:14:49;29.10;42.60
45537;DHT22;31262;51.978;5.924;2022-08-21T12:17:24;29.20;42.70
45537;DHT22;31262;51.978;5.924;2022-08-21T12:20:14;29.30;41.90
45537;DHT22;31262;51.978;5.924;2022-08-21T12:22:41;29.40;42.70
45537;DHT22;31262;51.978;5.924;2022-08-21T12:25:11;29.50;41.20
45537;DHT22;31262;51.978;5.924;2022-08-21T12:27:47;29.60;40.70
45537;DHT22;31262;51.978;5.924;2022-08-21T12:30:36;29.50;40.20
45537;DHT22;31262;51.978;5.924;2022-08-21T12:33:31;29.50;41.20
45537;DHT22;31262;51.978;5.924;2022-08-21T12:36:09;29.60;41.20
45537;DHT22;31262;51.978;5.924;2022-08-21T12:38:57;29.60;41.10
45537;DHT22;31262;51.978;5.924;2022-08-21T12:41:30;29.70;41.10
45537;DHT22;31262;51.978;5.924;2022-08-21T12:44:38;29.80;40.50
45537;DHT22;31262;51.978;5.924;2022-08-21T12:50:45;30.10;39.30
45537;DHT22;31262;51.978;5.924;2022-08-21T12:53:24;29.90;38.60
45537;DHT22;31262;51.978;5.924;2022-08-21T12:55:51;29.90;39.10
45537;DHT22;31262;51.978;5.924;2022-08-21T12:58:22;29.80;39.50
45537;DHT22;31262;51.978;5.924;2022-08-21T13:01:03;29.90;39.80
45537;DHT22;31262;51.978;5.924;2022-08-21T13:03:30;29.90;39.80
45537;DHT22;31262;51.978;5.924;2022-08-21T13:05:58;29.90;39.30
45537;DHT22;31262;51.978;5.924;2022-08-21T13:08:26;30.00;38.80
45537;DHT22;31262;51.978;5.924;2022-08-21T13:11:01;30.00;38.10
45537;DHT22;31262;51.978;5.924;2022-08-21T13:13:28;29.90;38.40
45537;DHT22;31262;51.978;5.924;2022-08-21T13:15:59;29.80;38.40
45537;DHT22;31262;51.978;5.924;2022-08-21T13:18:28;29.80;37.60
45537;DHT22;31262;51.978;5.924;2022-08-21T13:21:06;29.70;37.90
45537;DHT22;31262;51.978;5.924;2022-08-21T13:23:32;29.70;38.90
45537;DHT22;31262;51.978;5.924;2022-08-21T13:25:58;29.70;38.60
45537;DHT22;31262;51.978;5.924;2022-08-21T13:28:32;29.80;38.70
45537;DHT22;31262;51.978;5.924;2022-08-21T13:30:59;30.00;38.00
45537;DHT22;31262;51.978;5.924;2022-08-21T13:33:29;30.00;37.10
45537;DHT22;31262;51.978;5.924;2022-08-21T13:38:25;30.10;37.10
45537;DHT22;31262;51.978;5.924;2022-08-21T13:40:57;30.30;36.90
45537;DHT22;31262;51.978;5.924;2022-08-21T13:43:33;30.50;36.50
45537;DHT22;31262;51.978;5.924;2022-08-21T13:46:00;30.60;36.70
45537;DHT22;31262;51.978;5.924;2022-08-21T13:48:30;30.50;37.00
45537;DHT22;31262;51.978;5.924;2022-08-21T13:50:57;30.60;37.40
45537;DHT22;31262;51.978;5.924;2022-08-21T13:53:30;30.70;37.30
45537;DHT22;31262;51.978;5.924;2022-08-21T13:55:58;30.70;36.30
45537;DHT22;31262;51.978;5.924;2022-08-21T13:58:44;30.50;36.70
45537;DHT22;31262;51.978;5.924;2022-08-21T14:01:48;30.60;36.80
45537;DHT22;31262;51.978;5.924;2022-08-21T14:04:24;30.70;36.90
45537;DHT22;31262;51.978;5.924;2022-08-21T14:06:51;30.80;36.60
45537;DHT22;31262;51.978;5.924;2022-08-21T14:09:39;30.80;36.50
45537;DHT22;31262;51.978;5.924;2022-08-21T14:12:29;30.90;36.30
45537;DHT22;31262;51.978;5.924;2022-08-21T14:14:56;31.00;36.30
45537;DHT22;31262;51.978;5.924;2022-08-21T14:17:37;31.00;36.40
45537;DHT22;31262;51.978;5.924;2022-08-21T14:20:05;31.00;36.20
45537;DHT22;31262;51.978;5.924;2022-08-21T14:22:41;30.90;36.00
45537;DHT22;31262;51.978;5.924;2022-08-21T14:27:38;30.70;35.60
45537;DHT22;31262;51.978;5.924;2022-08-21T14:30:18;30.40;36.10
45537;DHT22;31262;51.978;5.924;2022-08-21T14:32:45;30.60;36.70
45537;DHT22;31262;51.978;5.924;2022-08-21T14:35:12;30.60;37.30
45537;DHT22;31262;51.978;5.924;2022-08-21T14:37:41;30.70;37.10
45537;DHT22;31262;51.978;5.924;2022-08-21T14:40:07;30.70;35.80
45537;DHT22;31262;51.978;5.924;2022-08-21T14:42:33;30.50;36.60
45537;DHT22;31262;51.978;5.924;2022-08-21T14:45:03;30.50;36.10
45537;DHT22;31262;51.978;5.924;2022-08-21T14:47:30;30.50;36.10
45537;DHT22;31262;51.978;5.924;2022-08-21T14:49:56;30.40;36.10
45537;DHT22;31262;51.978;5.924;2022-08-21T14:52:21;30.30;36.40
45537;DHT22;31262;51.978;5.924;2022-08-21T14:54:49;30.30;37.10
45537;DHT22;31262;51.978;5.924;2022-08-21T14:57:14;30.20;36.70
45537;DHT22;31262;51.978;5.924;2022-08-21T14:59:40;30.00;37.40
45537;DHT22;31262;51.978;5.924;2022-08-21T15:02:08;30.00;37.40
45537;DHT22;31262;51.978;5.924;2022-08-21T15:04:34;29.90;37.50
45537;DHT22;31262;51.978;5.924;2022-08-21T15:07:00;29.80;37.60
45537;DHT22;31262;51.978;5.924;2022-08-21T15:09:26;29.80;38.10
45537;DHT22;31262;51.978;5.924;2022-08-21T15:11:57;29.80;38.30
45537;DHT22;31262;51.978;5.924;2022-08-21T15:14:26;29.80;38.20
45537;DHT22;31262;51.978;5.924;2022-08-21T15:16:52;29.70;38.10
45537;DHT22;31262;51.978;5.924;2022-08-21T15:19:18;29.70;38.20
45537;DHT22;31262;51.978;5.924;2022-08-21T15:21:44;29.70;38.10
45537;DHT22;31262;51.978;5.924;2022-08-21T15:24:10;29.70;38.10
45537;DHT22;31262;51.978;5.924;2022-08-21T15:26:36;29.70;37.80
45537;DHT22;31262;51.978;5.924;2022-08-21T15:29:01;29.60;37.10
45537;DHT22;31262;51.978;5.924;2022-08-21T15:31:28;29.50;37.40
45537;DHT22;31262;51.978;5.924;2022-08-21T15:33:53;29.40;37.90
45537;DHT22;31262;51.978;5.924;2022-08-21T15:36:20;29.40;38.20
45537;DHT22;31262;51.978;5.924;2022-08-21T15:38:46;29.30;37.60
45537;DHT22;31262;51.978;5.924;2022-08-21T15:41:12;29.30;37.30
45537;DHT22;31262;51.978;5.924;2022-08-21T15:43:48;29.20;36.80
45537;DHT22;31262;51.978;5.924;2022-08-21T15:46:16;29.10;37.70
45537;DHT22;31262;51.978;5.924;2022-08-21T15:48:42;28.90;38.00
45537;DHT22;31262;51.978;5.924;2022-08-21T15:51:09;28.80;38.20
45537;DHT22;31262;51.978;5.924;2022-08-21T15:53:35;28.90;38.50
45537;DHT22;31262;51.978;5.924;2022-08-21T15:56:04;28.90;38.60
45537;DHT22;31262;51.978;5.924;2022-08-21T15:58:30;28.90;38.70
45537;DHT22;31262;51.978;5.924;2022-08-21T16:00:59;28.90;38.80
45537;DHT22;31262;51.978;5.924;2022-08-21T16:03:25;28.90;39.00
45537;DHT22;31262;51.978;5.924;2022-08-21T16:05:51;28.90;39.20
45537;DHT22;31262;51.978;5.924;2022-08-21T16:08:19;28.80;39.50
45537;DHT22;31262;51.978;5.924;2022-08-21T16:10:45;28.80;39.60
45537;DHT22;31262;51.978;5.924;2022-08-21T16:13:36;28.80;39.60
45537;DHT22;31262;51.978;5.924;2022-08-21T16:16:04;28.70;39.40
45537;DHT22;31262;51.978;5.924;2022-08-21T16:18:31;28.60;39.70
45537;DHT22;31262;51.978;5.924;2022-08-21T16:20:57;28.50;39.80
45537;DHT22;31262;51.978;5.924;2022-08-21T16:23:22;28.50;39.70
45537;DHT22;31262;51.978;5.924;2022-08-21T16:25:48;28.40;39.90
45537;DHT22;31262;51.978;5.924;2022-08-21T16:28:17;28.40;40.10
45537;DHT22;31262;51.978;5.924;2022-08-21T16:30:45;28.40;41.00
45537;DHT22;31262;51.978;5.924;2022-08-21T16:33:33;28.30;41.20
45537;DHT22;31262;51.978;5.924;2022-08-21T16:35:59;28.30;41.70
45537;DHT22;31262;51.978;5.924;2022-08-21T16:38:26;28.20;41.40
45537;DHT22;31262;51.978;5.924;2022-08-21T16:40:53;28.20;42.10
45537;DHT22;31262;51.978;5.924;2022-08-21T16:43:22;28.20;41.80
45537;DHT22;31262;51.978;5.924;2022-08-21T16:45:49;28.20;41.70